createdAt,value
2023-03-08T00:01:31.400Z,74.38
2023-03-08T00:04:00.743Z,73.90
2023-03-08T00:06:28.862Z,73.91
2023-03-08T00:09:02.089Z,73.94
2023-03-08T00:11:30.806Z,74.09
2023-03-08T00:13:58.955Z,73.60
2023-03-08T00:16:26.968Z,74.03
2023-03-08T00:18:54.931Z,73.71
2023-03-08T00:21:23.117Z,73.46
2023-03-08T00:23:54.453Z,73.17
2023-03-08T00:26:22.550Z,72.87
2023-03-08T00:28:50.655Z,72.95
2023-03-08T00:31:18.722Z,73.12
2023-03-08T00:33:46.661Z,73.90
2023-03-08T00:36:19.828Z,74.13
2023-03-08T00:38:50.402Z,74.38
2023-03-08T00:41:19.060Z,74.86
2023-03-08T00:43:46.953Z,74.08
2023-03-08T00:46:15.793Z,75.11
2023-03-08T00:48:44.160Z,74.64
2023-03-08T00:51:16.313Z,74.36
2023-03-08T00:53:45.290Z,74.55
2023-03-08T00:56:13.980Z,73.82
2023-03-08T00:58:42.642Z,74.11
2023-03-08T01:01:18.068Z,74.05
2023-03-08T01:03:46.688Z,74.22
2023-03-08T01:06:15.973Z,74.38
2023-03-08T01:08:44.634Z,73.38
2023-03-08T01:11:24.497Z,74.47
2023-03-08T01:13:54.321Z,74.47
2023-03-08T01:16:32.418Z,74.06
2023-03-08T01:19:04.102Z,73.46
2023-03-08T01:21:32.672Z,75.08
2023-03-08T01:24:00.696Z,74.46
2023-03-08T01:26:28.654Z,74.13
2023-03-08T01:28:58.355Z,73.60
2023-03-08T01:31:29.894Z,74.95
2023-03-08T01:33:58.804Z,73.98
2023-03-08T01:36:29.348Z,75.46
2023-03-08T01:39:01.364Z,74.05
2023-03-08T01:41:31.969Z,75.01
2023-03-08T01:44:00.278Z,74.85
2023-03-08T01:46:36.542Z,73.90
2023-03-08T01:49:33.300Z,76.07
2023-03-08T01:52:14.883Z,74.97
2023-03-08T01:54:56.513Z,75.07
2023-03-08T01:57:37.214Z,75.65
2023-03-08T02:00:17.197Z,75.45
2023-03-08T02:03:08.399Z,74.95
2023-03-08T02:05:44.423Z,75.54
2023-03-08T02:08:12.381Z,75.27
2023-03-08T02:10:40.345Z,75.05
2023-03-08T02:13:08.944Z,74.73
2023-03-08T02:15:37.142Z,76.37
2023-03-08T02:18:05.076Z,76.36
2023-03-08T02:20:44.741Z,75.40
2023-03-08T02:23:21.278Z,75.14
2023-03-08T02:26:04.675Z,75.38
2023-03-08T02:28:33.483Z,74.64
2023-03-08T02:31:01.653Z,75.10
2023-03-08T02:33:31.146Z,75.05
2023-03-08T02:36:00.754Z,75.31
2023-03-08T02:38:29.588Z,75.11
2023-03-08T02:40:57.648Z,74.40
2023-03-08T02:43:25.871Z,74.89
2023-03-08T02:45:56.326Z,75.28
2023-03-08T02:48:24.215Z,75.26
2023-03-08T02:50:52.184Z,74.95
2023-03-08T02:53:20.066Z,74.82
2023-03-08T02:55:48.034Z,75.32
2023-03-08T02:58:15.973Z,75.26
2023-03-08T03:00:43.938Z,75.77
2023-03-08T03:03:11.952Z,74.91
2023-03-08T03:05:46.150Z,76.08
2023-03-08T03:08:14.049Z,75.33
2023-03-08T03:10:41.919Z,75.32
2023-03-08T03:13:09.911Z,74.93
2023-03-08T03:15:39.969Z,75.32
2023-03-08T03:18:08.172Z,74.79
2023-03-08T03:20:36.161Z,74.71
2023-03-08T03:23:04.120Z,75.04
2023-03-08T03:25:32.436Z,75.84
2023-03-08T03:28:00.306Z,75.18
2023-03-08T03:30:28.153Z,75.32
2023-03-08T03:32:56.047Z,75.16
2023-03-08T03:35:23.934Z,76.90
2023-03-08T03:37:51.799Z,75.67
2023-03-08T03:40:19.806Z,78.15
2023-03-08T03:42:49.920Z,77.54
2023-03-08T03:45:18.038Z,77.68
2023-03-08T03:47:47.246Z,79.07
2023-03-08T03:50:15.190Z,80.19
2023-03-08T03:52:43.116Z,77.54
2023-03-08T03:55:11.059Z,77.41
2023-03-08T03:57:38.942Z,77.40
2023-03-08T04:00:10.039Z,77.56
2023-03-08T04:02:37.908Z,77.66
2023-03-08T04:05:06.362Z,76.97
2023-03-08T04:07:34.360Z,77.63
2023-03-08T04:10:02.280Z,77.87
2023-03-08T04:12:30.109Z,76.35
2023-03-08T04:14:57.958Z,75.57
2023-03-08T04:17:25.909Z,77.62
2023-03-08T04:19:53.841Z,76.20
2023-03-08T04:22:21.718Z,76.49
2023-03-08T04:24:49.622Z,75.93
2023-03-08T04:27:17.510Z,76.01
2023-03-08T04:29:45.331Z,76.52
2023-03-08T04:32:13.559Z,76.65
2023-03-08T04:34:42.945Z,75.64
2023-03-08T04:37:12.804Z,76.42
2023-03-08T04:39:40.681Z,75.63
2023-03-08T04:42:08.617Z,75.46
2023-03-08T04:44:36.512Z,75.15
2023-03-08T04:47:04.588Z,74.79
2023-03-08T04:49:34.538Z,78.60
2023-03-08T04:52:02.524Z,78.04
2023-03-08T04:54:30.491Z,77.78
2023-03-08T04:57:00.722Z,79.10
2023-03-08T04:59:28.625Z,77.09
2023-03-08T05:01:56.607Z,78.33
2023-03-08T05:04:24.565Z,76.14
2023-03-08T05:06:52.504Z,76.23
2023-03-08T05:09:20.333Z,76.20
2023-03-08T05:11:48.201Z,75.52
2023-03-08T05:14:16.039Z,74.84
2023-03-08T05:16:43.939Z,73.98
2023-03-08T05:19:12.166Z,73.65
2023-03-08T05:21:40.073Z,72.94
2023-03-08T05:24:07.988Z,73.91
2023-03-08T05:26:35.966Z,74.04
2023-03-08T05:29:06.301Z,73.58
2023-03-08T05:31:36.509Z,73.86
2023-03-08T05:34:04.421Z,73.95
2023-03-08T05:36:32.306Z,73.97
2023-03-08T05:39:00.145Z,73.85
2023-03-08T05:41:27.978Z,73.35
2023-03-08T05:43:58.495Z,72.39
2023-03-08T05:46:26.381Z,72.73
2023-03-08T05:48:54.226Z,73.82
2023-03-08T05:51:22.172Z,73.55
2023-03-08T05:53:50.083Z,74.06
2023-03-08T05:56:22.323Z,73.55
2023-03-08T05:58:51.695Z,73.55
2023-03-08T06:01:23.763Z,74.08
2023-03-08T06:03:57.303Z,73.29
2023-03-08T06:06:28.141Z,73.85
2023-03-08T06:08:56.340Z,73.05
2023-03-08T06:11:25.174Z,73.72
2023-03-08T06:13:54.361Z,73.32
2023-03-08T06:16:22.258Z,73.25
2023-03-08T06:18:50.097Z,73.48
2023-03-08T06:21:22.611Z,73.77
2023-03-08T06:23:51.784Z,73.47
2023-03-08T06:26:20.125Z,73.31
2023-03-08T06:28:47.984Z,73.13
2023-03-08T06:31:18.887Z,73.09
2023-03-08T06:33:46.790Z,72.16
2023-03-08T06:36:19.800Z,72.78
2023-03-08T06:38:49.077Z,72.33
2023-03-08T06:41:23.594Z,72.44
2023-03-08T06:43:51.453Z,71.97
2023-03-08T06:46:20.363Z,72.34
2023-03-08T06:48:51.649Z,72.34
2023-03-08T06:51:19.734Z,72.10
2023-03-08T06:53:48.321Z,71.85
2023-03-08T06:56:17.823Z,71.60
2023-03-08T06:58:45.738Z,72.07
2023-03-08T07:01:14.651Z,71.50
2023-03-08T07:03:44.786Z,71.49
2023-03-08T07:06:13.732Z,71.39
2023-03-08T07:08:42.086Z,70.48
2023-03-08T07:11:10.782Z,70.60
2023-03-08T07:13:39.060Z,69.92
2023-03-08T07:16:12.041Z,69.91
2023-03-08T07:18:41.081Z,70.28
2023-03-08T07:21:10.322Z,70.84
2023-03-08T07:23:38.254Z,69.63
2023-03-08T07:26:08.148Z,70.15
2023-03-08T07:28:36.189Z,70.07
2023-03-08T07:31:04.346Z,68.83
2023-03-08T07:33:32.486Z,69.41
2023-03-08T07:36:02.304Z,69.56
2023-03-08T07:38:30.310Z,69.95
2023-03-08T07:40:58.602Z,68.50
2023-03-08T07:43:26.633Z,69.40
2023-03-08T07:45:54.663Z,68.46
2023-03-08T07:48:22.599Z,67.64
2023-03-08T07:50:50.597Z,67.29
2023-03-08T07:53:18.524Z,68.18
2023-03-08T07:55:46.407Z,67.64
2023-03-08T07:58:15.094Z,67.47
2023-03-08T08:00:48.638Z,68.29
2023-03-08T08:03:33.414Z,67.59
2023-03-08T08:06:07.248Z,66.55
2023-03-08T08:08:45.129Z,66.75
2023-03-08T08:11:17.536Z,66.70
2023-03-08T08:13:47.177Z,66.31
2023-03-08T08:16:17.197Z,67.02
2023-03-08T08:18:52.794Z,66.65
2023-03-08T08:21:21.290Z,65.86
2023-03-08T08:23:49.533Z,66.27
2023-03-08T08:26:22.270Z,65.46
2023-03-08T08:28:54.502Z,65.52
2023-03-08T08:31:36.108Z,65.26
2023-03-08T08:34:04.217Z,64.75
2023-03-08T08:36:38.733Z,65.19
2023-03-08T08:39:23.054Z,64.60
2023-03-08T08:41:53.559Z,65.14
2023-03-08T08:44:21.572Z,65.04
2023-03-08T08:46:52.587Z,64.72
2023-03-08T08:49:20.696Z,63.24
2023-03-08T08:51:48.671Z,63.73
2023-03-08T08:54:16.765Z,63.89
2023-03-08T08:56:45.691Z,63.41
2023-03-08T08:59:20.145Z,63.63
2023-03-08T09:01:48.885Z,62.61
2023-03-08T09:04:17.208Z,63.41
2023-03-08T09:06:45.280Z,62.86
2023-03-08T09:09:13.209Z,62.70
2023-03-08T09:11:53.848Z,61.41
2023-03-08T09:14:23.265Z,61.15
2023-03-08T09:16:52.687Z,59.01
2023-03-08T09:19:20.807Z,62.45
2023-03-08T09:21:48.766Z,62.41
2023-03-08T09:24:17.123Z,62.03
2023-03-08T09:26:44.986Z,61.29
2023-03-08T09:29:13.185Z,60.13
2023-03-08T09:31:43.519Z,61.84
2023-03-08T09:34:14.789Z,60.32
2023-03-08T09:36:43.248Z,60.69
2023-03-08T09:39:13.777Z,61.47
2023-03-08T09:42:00.034Z,61.95
2023-03-08T09:45:01.836Z,60.39
2023-03-08T09:47:35.259Z,60.64
2023-03-08T09:50:59.457Z,59.89
2023-03-08T09:54:03.036Z,59.40
2023-03-08T09:56:46.330Z,58.89
2023-03-08T09:59:41.059Z,59.58
2023-03-08T10:02:17.567Z,58.42
2023-03-08T10:05:29.997Z,58.83
2023-03-08T10:08:33.966Z,58.63
2023-03-08T10:11:24.274Z,58.79
2023-03-08T10:13:58.611Z,57.46
2023-03-08T10:16:36.568Z,58.64
2023-03-08T10:20:06.661Z,58.36
2023-03-08T10:22:42.496Z,57.11
2023-03-08T10:25:33.878Z,55.27
2023-03-08T10:28:11.668Z,53.90
2023-03-08T10:30:58.841Z,54.10
2023-03-08T10:33:38.441Z,53.27
2023-03-08T10:36:21.747Z,53.04
2023-03-08T10:39:09.825Z,53.03
2023-03-08T10:41:57.013Z,52.76
2023-03-08T10:44:48.496Z,51.64
2023-03-08T10:47:34.748Z,52.71
2023-03-08T10:50:19.786Z,53.06
2023-03-08T10:52:51.810Z,52.71
2023-03-08T10:55:29.537Z,51.66
2023-03-08T10:58:01.914Z,49.28
2023-03-08T11:00:40.856Z,52.07
2023-03-08T11:03:25.407Z,52.44
2023-03-08T11:06:12.416Z,51.60
2023-03-08T11:09:00.034Z,49.04
2023-03-08T11:11:28.722Z,48.96
2023-03-08T11:13:56.998Z,51.30
2023-03-08T11:16:55.736Z,50.50
2023-03-08T11:20:10.953Z,48.56
2023-03-08T11:23:20.949Z,48.51
2023-03-08T11:26:12.053Z,48.50
2023-03-08T11:29:22.311Z,51.86
2023-03-08T11:32:40.911Z,50.42
2023-03-08T11:35:32.965Z,48.65
2023-03-08T11:38:28.606Z,49.23
2023-03-08T11:41:31.226Z,48.75
2023-03-08T11:44:31.637Z,48.87
2023-03-08T11:47:53.261Z,49.25
2023-03-08T11:50:46.046Z,49.50
2023-03-08T11:54:07.641Z,50.57
2023-03-08T11:57:01.485Z,49.58
2023-03-08T11:59:39.630Z,49.18
2023-03-08T12:02:25.749Z,51.11
2023-03-08T12:05:28.213Z,51.04
2023-03-08T12:08:12.061Z,52.38
2023-03-08T12:11:29.723Z,51.20
2023-03-08T12:14:22.937Z,50.85
2023-03-08T12:17:22.786Z,50.40
2023-03-08T12:19:51.767Z,52.26
2023-03-08T12:22:57.074Z,52.01
2023-03-08T12:25:37.901Z,49.88
2023-03-08T12:28:29.331Z,50.67
2023-03-08T12:31:28.379Z,52.89
2023-03-08T12:33:59.969Z,49.14
2023-03-08T12:36:43.296Z,50.13
2023-03-08T12:39:35.508Z,48.15
2023-03-08T12:42:11.902Z,48.21
2023-03-08T12:44:41.033Z,47.74
2023-03-08T12:47:22.175Z,48.74
2023-03-08T12:50:17.028Z,49.78
2023-03-08T12:52:45.090Z,49.89
2023-03-08T12:55:31.670Z,48.00
2023-03-08T12:58:04.436Z,48.19
2023-03-08T13:00:40.752Z,49.83
2023-03-08T13:03:14.273Z,49.82
2023-03-08T13:05:52.400Z,51.01
2023-03-08T13:08:39.946Z,53.06
2023-03-08T13:11:15.080Z,52.50
2023-03-08T13:13:58.071Z,52.99
2023-03-08T13:16:39.785Z,51.38
2023-03-08T13:19:30.737Z,51.12
2023-03-08T13:22:34.010Z,49.38
2023-03-08T13:25:45.516Z,50.99
2023-03-08T13:28:26.348Z,51.07
2023-03-08T13:31:13.019Z,49.37
2023-03-08T13:33:52.165Z,49.71
2023-03-08T13:36:32.493Z,49.43
2023-03-08T13:39:18.678Z,49.58
2023-03-08T13:41:48.596Z,49.66
2023-03-08T13:44:24.436Z,49.39
2023-03-08T13:47:16.835Z,49.66
2023-03-08T13:49:46.072Z,49.56
2023-03-08T13:52:24.897Z,51.41
2023-03-08T13:55:00.995Z,50.94
2023-03-08T13:57:36.908Z,51.60
2023-03-08T14:00:31.230Z,50.30
2023-03-08T14:03:01.911Z,50.68
2023-03-08T14:05:42.725Z,50.49
2023-03-08T14:08:36.993Z,51.20
2023-03-08T14:11:08.449Z,53.00
2023-03-08T14:13:39.214Z,54.08
2023-03-08T14:16:22.311Z,54.61
2023-03-08T14:18:50.374Z,53.57
2023-03-08T14:21:24.447Z,53.02
2023-03-08T14:24:02.825Z,53.37
2023-03-08T14:26:39.412Z,54.19
2023-03-08T14:29:21.510Z,57.50
2023-03-08T14:32:12.643Z,58.58
2023-03-08T14:34:45.828Z,61.05
2023-03-08T14:37:32.790Z,60.14
2023-03-08T14:40:29.666Z,60.79
2023-03-08T14:43:07.262Z,60.74
2023-03-08T14:46:07.236Z,61.72
2023-03-08T14:48:38.101Z,61.72
2023-03-08T14:51:18.754Z,63.61
2023-03-08T14:54:02.141Z,63.71
2023-03-08T14:56:30.822Z,62.93
2023-03-08T14:59:05.353Z,65.16
2023-03-08T15:01:37.405Z,65.32
2023-03-08T15:04:23.869Z,66.20
2023-03-08T15:06:54.696Z,65.81
2023-03-08T15:09:23.541Z,66.23
2023-03-08T15:11:53.921Z,65.22
2023-03-08T15:14:21.917Z,65.82
2023-03-08T15:16:51.096Z,66.07
2023-03-08T15:19:18.919Z,67.54
2023-03-08T15:21:47.179Z,67.41
2023-03-08T15:24:18.090Z,66.81
2023-03-08T15:26:46.671Z,68.83
2023-03-08T15:29:34.470Z,67.85
2023-03-08T15:32:05.176Z,68.18
2023-03-08T15:34:33.203Z,69.07
2023-03-08T15:37:01.121Z,67.38
2023-03-08T15:39:31.520Z,69.28
2023-03-08T15:42:00.481Z,69.25
2023-03-08T15:44:28.399Z,69.98
2023-03-08T15:46:56.416Z,66.59
2023-03-08T15:49:24.546Z,66.34
2023-03-08T15:51:55.199Z,66.56
2023-03-08T15:54:23.030Z,68.30
2023-03-08T15:56:51.187Z,71.09
2023-03-08T15:59:19.135Z,70.16
2023-03-08T16:01:47.052Z,72.06
2023-03-08T16:04:16.267Z,72.47
2023-03-08T16:06:44.201Z,72.86
2023-03-08T16:09:12.066Z,73.21
2023-03-08T16:11:39.970Z,75.45
2023-03-08T16:14:07.844Z,75.54
2023-03-08T16:16:45.214Z,75.61
2023-03-08T16:19:14.019Z,75.77
2023-03-08T16:21:42.005Z,75.75
2023-03-08T16:24:11.627Z,76.76
2023-03-08T16:26:39.509Z,77.15
2023-03-08T16:29:08.493Z,77.45
2023-03-08T16:31:36.590Z,76.05
2023-03-08T16:34:05.972Z,76.32
2023-03-08T16:36:34.232Z,76.29
2023-03-08T16:39:02.211Z,76.36
2023-03-08T16:41:30.224Z,75.37
2023-03-08T16:43:58.408Z,76.15
2023-03-08T16:46:26.455Z,76.02
2023-03-08T16:48:56.294Z,75.98
2023-03-08T16:51:28.548Z,76.14
2023-03-08T16:53:56.514Z,76.65
2023-03-08T16:56:29.315Z,75.63
2023-03-08T16:59:00.877Z,76.08
2023-03-08T17:01:29.625Z,76.88
2023-03-08T17:03:58.550Z,76.33
2023-03-08T17:06:31.303Z,77.01
2023-03-08T17:08:59.863Z,76.97
2023-03-08T17:11:32.967Z,77.95
2023-03-08T17:14:08.855Z,77.17
2023-03-08T17:16:37.755Z,77.50
2023-03-08T17:19:08.875Z,77.69
2023-03-08T17:21:38.796Z,78.63
2023-03-08T17:24:11.081Z,78.20
2023-03-08T17:26:48.264Z,78.36
2023-03-08T17:29:16.612Z,79.68
2023-03-08T17:31:45.044Z,79.45
2023-03-08T17:34:13.102Z,78.51
2023-03-08T17:36:41.239Z,78.85
2023-03-08T17:39:09.993Z,78.68
2023-03-08T17:41:38.845Z,78.80
2023-03-08T17:44:06.890Z,79.19
2023-03-08T17:46:35.194Z,78.68
2023-03-08T17:49:03.159Z,79.93
2023-03-08T17:51:32.917Z,80.47
2023-03-08T17:54:02.122Z,79.35
2023-03-08T17:56:32.092Z,79.71
2023-03-08T17:59:01.660Z,78.98
2023-03-08T18:01:31.924Z,80.11
2023-03-08T18:04:00.654Z,80.56
2023-03-08T18:06:41.459Z,80.74
2023-03-08T18:09:16.328Z,81.97
2023-03-08T18:11:44.551Z,80.71
2023-03-08T18:14:15.421Z,79.91
2023-03-08T18:16:44.846Z,79.29
2023-03-08T18:19:13.032Z,79.57
2023-03-08T18:21:41.804Z,79.09
2023-03-08T18:24:13.232Z,80.64
2023-03-08T18:26:41.425Z,81.48
2023-03-08T18:29:09.542Z,80.46
2023-03-08T18:31:38.354Z,80.43
2023-03-08T18:34:08.020Z,80.70
2023-03-08T18:36:37.481Z,81.21
2023-03-08T18:39:12.489Z,81.14
2023-03-08T18:41:40.694Z,80.42
2023-03-08T18:44:11.546Z,79.70
2023-03-08T18:46:39.927Z,80.37
2023-03-08T18:49:12.359Z,79.61
2023-03-08T18:51:42.876Z,79.80
2023-03-08T18:54:17.490Z,80.79
2023-03-08T18:56:45.367Z,80.77
2023-03-08T18:59:14.749Z,80.54
2023-03-08T19:01:42.953Z,81.09
2023-03-08T19:04:11.233Z,81.07
2023-03-08T19:06:39.298Z,82.13
2023-03-08T19:09:14.237Z,82.52
2023-03-08T19:11:43.220Z,81.09
2023-03-08T19:14:13.095Z,80.90
2023-03-08T19:16:44.749Z,80.34
2023-03-08T19:19:16.458Z,81.25
2023-03-08T19:21:48.549Z,81.57
2023-03-08T19:24:20.024Z,80.10
2023-03-08T19:26:55.120Z,81.84
2023-03-08T19:29:32.288Z,81.29
2023-03-08T19:32:05.453Z,82.46
2023-03-08T19:34:41.376Z,81.93
2023-03-08T19:37:13.155Z,82.49
2023-03-08T19:39:43.604Z,82.46
2023-03-08T19:42:16.669Z,81.42
2023-03-08T19:44:48.350Z,82.56
2023-03-08T19:47:17.658Z,82.51
2023-03-08T19:49:46.602Z,83.19
2023-03-08T19:52:14.596Z,82.26
2023-03-08T19:54:42.779Z,82.28
2023-03-08T19:57:11.069Z,81.85
2023-03-08T19:59:39.063Z,82.61
2023-03-08T20:02:08.875Z,82.08
2023-03-08T20:04:36.898Z,82.44
2023-03-08T20:07:04.861Z,81.92
2023-03-08T20:09:32.889Z,83.01
2023-03-08T20:12:00.826Z,82.99
2023-03-08T20:14:28.928Z,83.08
2023-03-08T20:16:59.064Z,84.32
2023-03-08T20:19:31.691Z,83.82
2023-03-08T20:22:00.401Z,84.46
2023-03-08T20:24:28.558Z,85.72
2023-03-08T20:26:56.935Z,84.74
2023-03-08T20:29:24.931Z,85.19
2023-03-08T20:31:52.894Z,85.52
2023-03-08T20:34:20.956Z,84.56
2023-03-08T20:36:49.120Z,84.48
2023-03-08T20:39:18.205Z,83.12
2023-03-08T20:41:46.137Z,83.39
2023-03-08T20:44:16.249Z,83.33
2023-03-08T20:46:44.106Z,84.08
2023-03-08T20:49:12.480Z,83.78
2023-03-08T20:51:40.382Z,83.21
2023-03-08T20:54:08.663Z,83.82
2023-03-08T20:56:36.829Z,84.22
2023-03-08T20:59:05.200Z,84.19
2023-03-08T21:01:33.587Z,83.47
2023-03-08T21:04:01.557Z,83.25
2023-03-08T21:06:31.662Z,83.20
2023-03-08T21:09:00.584Z,83.70
2023-03-08T21:11:30.992Z,84.68
2023-03-08T21:13:58.863Z,84.30
2023-03-08T21:16:29.055Z,84.55
2023-03-08T21:19:01.326Z,85.24
2023-03-08T21:21:35.354Z,84.52
2023-03-08T21:24:18.044Z,85.60
2023-03-08T21:26:46.294Z,85.01
2023-03-08T21:29:19.408Z,84.87
2023-03-08T21:31:53.006Z,84.28
2023-03-08T21:34:21.614Z,85.58
2023-03-08T21:36:49.768Z,85.72
2023-03-08T21:39:18.159Z,85.27
2023-03-08T21:41:48.756Z,85.42
2023-03-08T21:44:20.693Z,84.52
2023-03-08T21:46:52.879Z,86.00
2023-03-08T21:49:27.957Z,85.48
2023-03-08T21:51:58.248Z,85.73
2023-03-08T21:54:31.583Z,86.96
2023-03-08T21:56:59.887Z,86.38
2023-03-08T21:59:29.140Z,85.86
2023-03-08T22:01:58.694Z,86.17
2023-03-08T22:04:28.112Z,85.74
2023-03-08T22:06:56.924Z,85.69
2023-03-08T22:09:28.019Z,86.25
2023-03-08T22:11:58.370Z,85.62
2023-03-08T22:14:28.207Z,85.71
2023-03-08T22:16:56.510Z,85.53
2023-03-08T22:19:30.844Z,85.34
2023-03-08T22:21:58.864Z,85.04
2023-03-08T22:24:27.339Z,84.48
2023-03-08T22:26:55.176Z,84.24
2023-03-08T22:29:23.120Z,85.77
2023-03-08T22:31:51.568Z,85.58
2023-03-08T22:34:22.073Z,84.91
2023-03-08T22:36:49.953Z,84.30
2023-03-08T22:39:18.020Z,85.45
2023-03-08T22:41:45.886Z,85.43
2023-03-08T22:44:15.161Z,85.28
2023-03-08T22:46:43.143Z,85.19
2023-03-08T22:49:11.771Z,85.03
2023-03-08T22:51:41.886Z,85.32
2023-03-08T22:54:17.534Z,85.31
2023-03-08T22:56:48.255Z,85.43
2023-03-08T22:59:18.441Z,85.84
2023-03-08T23:01:46.345Z,84.91
2023-03-08T23:04:14.401Z,85.41
2023-03-08T23:06:42.323Z,86.52
2023-03-08T23:09:12.732Z,86.52
2023-03-08T23:11:42.247Z,86.05
2023-03-08T23:14:12.072Z,85.71
2023-03-08T23:16:46.369Z,85.50
2023-03-08T23:19:19.494Z,86.70
2023-03-08T23:21:50.992Z,85.90
2023-03-08T23:24:19.109Z,85.96
2023-03-08T23:26:47.046Z,85.60
2023-03-08T23:29:15.739Z,86.52
2023-03-08T23:31:46.538Z,86.10
2023-03-08T23:34:14.595Z,85.62
2023-03-08T23:36:42.454Z,84.88
2023-03-08T23:39:10.612Z,85.08
2023-03-08T23:41:40.633Z,85.37
2023-03-08T23:44:10.638Z,85.17
2023-03-08T23:46:39.065Z,84.90
2023-03-08T23:49:07.083Z,84.80
2023-03-08T23:51:34.924Z,85.47
2023-03-08T23:54:02.959Z,85.48
2023-03-08T23:56:38.696Z,85.90
2023-03-08T23:59:20.415Z,85.97
